MMMD/MID METAR and TAF weather

Enter ICAO airport designator
Station Type Date Time Source
MMMD METAR 2019/10/21 02:46 UTC NOAA

MMMD 210246Z 10011KT 7SM SCT020 29/25 A2988 RMK SLP116 52020 911 8/500 CI


Station Type Date Time Source
MMMD Decoded METAR 2019/10/21 02:46 UTC NOAA

Merida / lic Manuel Crecencio, Mexico (MMMD) 20-56N 089-39W 11M
Oct 20, 2019 - 10:46 PM EDT / 2019.10.21 0246 UTC
Wind: from the E (100 degrees) at 13 MPH (11 KT):0
Visibility: 7 mile(s):0
Sky conditions: partly cloudy
Temperature: 84 F (29 C)
Dew Point: 77 F (25 C)
Relative Humidity: 79%
Pressure (altimeter): 29.88 in. Hg (1011 hPa)
Pressure tendency: 0.06 inches (2.0 hPa) higher than three hours ago
ob: MMMD 210246Z 10011KT 7SM SCT020 29/25 A2988 RMK SLP116 52020 911 8/500 CI
cycle: 3

Station Type Date Time Source
MMMD TAF 2019/10/20 18:18 UTC NOAA

TAF MMMD 201614Z 2018/2124 06010KT P6SM BKN020 BKN250 TX34/2019Z TN25/2110Z
FM210300 13015KT 6SM HZ SCT015 SCT080
BECMG 2110/2111 3SM BR HZ BKN010
TEMPO 2111/2115 OVC005
FM211600 13010KT P6SM SCT020 SCT250
BECMG 2117/2118 08012KT
TEMPO 2118/2122 BKN020

Example: see airport list